Time;durP1;ratioP1;P1;durP2;ratioP2;P2;SDS_P1;SDS_P2;PMS_P1;PMS_P2;Temp;Humidity;BMP_temperature;BMP_pressure;BME280_temperature;BME280_humidity;BME280_pressure;Samples;Min_cycle;Max_cycle;Signal;HPM_P1;HPM_P2
2023/06/28 00:01:57;;;;;;;22.17;12.63;;;;;;;19.31;100.00;94209.41;5072657;28;20078;-81
2023/06/28 00:04:22;;;;;;;27.10;13.35;;;;;;;19.18;100.00;94227.19;5073144;28;20024;-81
2023/06/28 00:06:48;;;;;;;21.80;12.15;;;;;;;19.48;100.00;94220.97;5073475;28;20025;-81
2023/06/28 00:09:13;;;;;;;23.98;11.63;;;;;;;19.69;100.00;94218.25;5056129;28;20028;-81
2023/06/28 00:11:38;;;;;;;23.75;13.18;;;;;;;19.34;100.00;94218.59;5055827;28;20047;-81
2023/06/28 00:14:04;;;;;;;25.63;13.65;;;;;;;19.73;100.00;94216.50;5072671;28;20361;-81
2023/06/28 00:16:29;;;;;;;39.08;15.05;;;;;;;19.69;100.00;94207.63;5072521;28;20395;-81
2023/06/28 00:19:00;;;;;;;16.20;11.65;;;;;;;19.79;100.00;94217.06;5072095;28;20033;-81
2023/06/28 00:21:26;;;;;;;19.67;13.15;;;;;;;19.64;100.00;94218.47;5056455;28;20437;-81
2023/06/28 00:23:52;;;;;;;19.73;13.30;;;;;;;19.82;100.00;94215.63;5072429;28;20024;-81
2023/06/28 00:26:17;;;;;;;29.90;16.48;;;;;;;20.01;100.00;94220.44;5072960;28;20039;-82
2023/06/28 00:28:43;;;;;;;23.45;14.48;;;;;;;20.11;100.00;94213.91;5058178;28;20342;-82
2023/06/28 00:31:08;;;;;;;26.98;15.50;;;;;;;19.90;100.00;94226.16;5058622;28;20086;-81
2023/06/28 00:33:33;;;;;;;25.17;15.63;;;;;;;20.02;100.00;94208.72;5075056;28;20021;-82
2023/06/28 00:35:59;;;;;;;28.60;16.80;;;;;;;20.06;100.00;94213.03;5077810;28;20342;-81
2023/06/28 00:38:25;;;;;;;28.80;17.15;;;;;;;19.89;100.00;94213.97;5079835;28;20028;-82
2023/06/28 00:40:50;;;;;;;24.58;17.23;;;;;;;19.89;100.00;94210.56;5075345;28;20078;-81
2023/06/28 00:43:16;;;;;;;27.60;15.40;;;;;;;19.92;100.00;94213.34;5096334;28;20422;-81
2023/06/28 00:45:41;;;;;;;26.35;16.92;;;;;;;19.94;100.00;94213.03;5095258;28;20070;-81
2023/06/28 00:48:07;;;;;;;26.80;17.42;;;;;;;20.04;100.00;94212.59;5068914;28;20025;-82
2023/06/28 00:50:33;;;;;;;31.02;18.35;;;;;;;19.97;100.00;94207.03;5065106;28;20051;-81
2023/06/28 00:52:58;;;;;;;32.00;18.77;;;;;;;19.44;100.00;94220.88;5074946;28;20036;-81
2023/06/28 00:55:24;;;;;;;24.50;15.98;;;;;;;19.42;100.00;94214.31;5075038;28;20028;-81
2023/06/28 00:57:50;;;;;;;26.63;18.67;;;;;;;19.31;100.00;94224.56;5058371;28;20070;-81
2023/06/28 01:00:16;;;;;;;28.15;19.80;;;;;;;18.88;100.00;94219.25;5074974;28;20028;-81
2023/06/28 01:02:42;;;;;;;31.60;19.90;;;;;;;18.99;100.00;94224.97;5075984;28;20123;-81
2023/06/28 01:05:09;;;;;;;30.88;19.42;;;;;;;19.01;100.00;94227.28;5075221;28;20025;-81
2023/06/28 01:07:36;;;;;;;28.48;18.67;;;;;;;19.20;100.00;94227.63;5089616;28;20036;-81
2023/06/28 01:10:01;;;;;;;32.85;17.55;;;;;;;19.62;100.00;94218.03;5077186;28;20050;-81
2023/06/28 01:12:27;;;;;;;25.90;17.80;;;;;;;19.81;100.00;94217.53;5077268;28;20671;-81
2023/06/28 01:14:52;;;;;;;29.48;18.95;;;;;;;19.74;100.00;94220.72;5060138;28;20032;-82
2023/06/28 01:17:19;;;;;;;30.77;19.40;;;;;;;19.70;100.00;94219.03;5076835;28;20037;-82
2023/06/28 01:19:44;;;;;;;26.90;18.00;;;;;;;19.94;100.00;94220.22;5077002;28;20410;-81
2023/06/28 01:22:12;;;;;;;22.52;15.80;;;;;;;19.76;100.00;94218.50;5060390;28;20048;-81
2023/06/28 01:24:38;;;;;;;28.27;17.02;;;;;;;19.94;100.00;94225.53;5076800;28;20119;-81
2023/06/28 01:27:05;;;;;;;31.67;19.30;;;;;;;19.76;100.00;94228.34;5076500;28;20124;-82
2023/06/28 01:29:31;;;;;;;28.80;18.63;;;;;;;19.45;100.00;94235.69;5060299;28;20123;-81
2023/06/28 01:31:56;;;;;;;32.95;18.92;;;;;;;19.83;100.00;94231.25;5076597;28;20107;-81
2023/06/28 01:34:22;;;;;;;29.05;17.95;;;;;;;19.88;100.00;94233.69;5076597;28;20056;-81
2023/06/28 01:36:48;;;;;;;26.75;16.63;;;;;;;19.96;100.00;94229.41;5076193;28;20028;-81
2023/06/28 01:39:14;;;;;;;28.88;17.10;;;;;;;19.72;100.00;94230.13;5076545;28;20028;-81
2023/06/28 01:41:40;;;;;;;24.52;16.08;;;;;;;19.98;100.00;94226.44;5076458;28;20491;-81
2023/06/28 01:44:06;;;;;;;26.98;16.35;;;;;;;20.02;100.00;94224.66;5076588;28;20032;-82
2023/06/28 01:46:37;;;;;;;23.63;16.55;;;;;;;20.05;100.00;94231.97;5059927;28;20122;-81
2023/06/28 01:49:03;;;;;;;30.52;18.77;;;;;;;19.49;100.00;94231.28;5059907;28;20036;-81
2023/06/28 01:51:28;;;;;;;25.58;17.92;;;;;;;19.03;100.00;94241.03;5076295;28;20047;-81
2023/06/28 01:53:54;;;;;;;28.23;17.48;;;;;;;19.50;100.00;94232.84;5076312;28;20033;-81
2023/06/28 01:56:19;;;;;;;28.23;18.95;;;;;;;19.01;100.00;94232.59;5059422;28;20122;-81
2023/06/28 01:58:45;;;;;;;24.60;16.25;;;;;;;19.33;100.00;94236.41;5075906;28;20032;-81
2023/06/28 02:01:13;;;;;;;30.88;19.02;;;;;;;19.06;100.00;94238.50;5076482;28;20122;-81
2023/06/28 02:03:39;;;;;;;30.15;18.48;;;;;;;18.92;100.00;94240.59;5077280;28;20467;-81
2023/06/28 02:06:04;;;;;;;28.50;17.38;;;;;;;19.54;100.00;94245.47;5076121;28;20032;-81
2023/06/28 02:08:30;;;;;;;23.92;15.73;;;;;;;19.87;100.00;94244.66;5059255;28;20131;-81
2023/06/28 02:10:55;;;;;;;28.13;15.80;;;;;;;20.05;100.00;94246.06;5075968;28;20040;-81
2023/06/28 02:13:20;;;;;;;22.35;14.52;;;;;;;20.27;100.00;94244.06;5077280;28;20024;-81
2023/06/28 02:15:46;;;;;;;25.83;15.90;;;;;;;20.36;100.00;94243.19;5059634;28;20032;-81
2023/06/28 02:18:16;;;;;;;21.10;12.45;;;;;;;19.83;100.00;94249.06;5076133;28;20326;-81
2023/06/28 02:20:42;;;;;;;23.27;13.93;;;;;;;19.74;100.00;94249.16;5076999;28;20115;-81
2023/06/28 02:23:07;;;;;;;26.45;15.25;;;;;;;20.11;100.00;94248.50;5058804;28;20043;-81
2023/06/28 02:25:32;;;;;;;22.77;15.20;;;;;;;20.50;100.00;94248.97;5076964;28;20315;-81
2023/06/28 02:27:58;;;;;;;21.92;14.40;;;;;;;20.55;100.00;94254.06;5075326;28;20051;-81
2023/06/28 02:30:23;;;;;;;23.33;14.52;;;;;;;20.14;100.00;94250.50;5075939;28;20032;-81
2023/06/28 02:32:48;;;;;;;25.10;15.27;;;;;;;20.18;100.00;94248.75;5076533;28;20123;-81
2023/06/28 02:35:14;;;;;;;22.65;13.57;;;;;;;20.33;100.00;94249.94;5073997;28;20025;-81
2023/06/28 02:37:40;;;;;;;27.40;13.80;;;;;;;20.41;100.00;94249.06;5074895;28;20032;-81
2023/06/28 02:40:07;;;;;;;27.23;14.95;;;;;;;20.51;100.00;94253.16;5074078;28;20032;-81
2023/06/28 02:42:32;;;;;;;28.02;15.07;;;;;;;20.43;100.00;94244.19;5073829;28;20024;-81
2023/06/28 02:44:58;;;;;;;33.60;15.02;;;;;;;20.31;100.00;94249.50;5057396;28;20434;-81
2023/06/28 02:47:23;;;;;;;23.05;11.80;;;;;;;19.31;100.00;94253.78;5073262;28;20044;-81
2023/06/28 02:49:49;;;;;;;43.45;17.35;;;;;;;19.92;100.00;94255.13;5074999;28;20510;-81
2023/06/28 02:52:14;;;;;;;35.63;15.82;;;;;;;20.16;100.00;94257.03;5073842;28;20028;-81
2023/06/28 02:54:39;;;;;;;28.40;15.05;;;;;;;20.24;100.00;94249.28;5073788;28;20032;-81
2023/06/28 02:57:08;;;;;;;33.97;17.48;;;;;;;20.21;100.00;94253.38;5074682;28;20052;-81
2023/06/28 02:59:33;;;;;;;27.27;15.60;;;;;;;20.45;100.00;94244.63;5073698;28;20059;-81
2023/06/28 03:01:59;;;;;;;30.73;15.95;;;;;;;20.57;100.00;94246.50;5074679;28;20040;-81
2023/06/28 03:04:27;;;;;;;31.08;16.17;;;;;;;20.65;100.00;94242.16;5073503;28;20392;-81
2023/06/28 03:06:53;;;;;;;34.55;17.17;;;;;;;20.46;100.00;94243.53;5073115;28;20334;-81
2023/06/28 03:09:18;;;;;;;29.15;17.27;;;;;;;20.54;100.00;94243.75;5057079;28;20039;-81
2023/06/28 03:11:44;;;;;;;24.98;13.90;;;;;;;20.49;100.00;94240.19;5073454;28;20051;-81
2023/06/28 03:14:09;;;;;;;34.92;15.23;;;;;;;20.04;100.00;94243.72;5074894;28;20036;-81
2023/06/28 03:16:34;;;;;;;33.90;14.88;;;;;;;20.29;100.00;94233.09;5057118;28;20021;-81
2023/06/28 03:19:00;;;;;;;35.58;16.67;;;;;;;20.16;100.00;94235.75;5072799;28;20037;-82
2023/06/28 03:21:25;;;;;;;39.70;18.83;;;;;;;19.94;100.00;94238.81;5073201;28;20028;-82
2023/06/28 03:23:51;;;;;;;23.50;15.27;;;;;;;20.12;100.00;94240.19;5074557;28;20036;-81
2023/06/28 03:26:16;;;;;;;30.48;16.65;;;;;;;20.39;100.00;94239.88;5073083;28;20028;-81
2023/06/28 03:28:42;;;;;;;33.72;17.30;;;;;;;20.36;100.00;94235.97;5055545;28;20025;-81
2023/06/28 03:31:07;;;;;;;40.58;15.77;;;;;;;20.01;100.00;94244.38;5056385;28;20345;-81
2023/06/28 03:33:32;;;;;;;42.33;16.92;;;;;;;19.27;100.00;94251.00;5072988;28;20054;-81
2023/06/28 03:35:58;;;;;;;46.45;18.60;;;;;;;19.02;100.00;94242.91;5074247;28;20039;-81
2023/06/28 03:38:23;;;;;;;35.97;17.77;;;;;;;19.57;100.00;94242.13;5073807;28;20032;-81
2023/06/28 03:40:49;;;;;;;34.60;17.88;;;;;;;20.05;100.00;94243.41;5072853;28;20043;-81
2023/06/28 03:43:14;;;;;;;37.28;19.63;;;;;;;19.86;100.00;94243.88;5072906;28;20032;-81
2023/06/28 03:45:43;;;;;;;46.40;19.63;;;;;;;20.10;100.00;94236.31;5073732;28;20035;-81
2023/06/28 03:48:09;;;;;;;35.95;18.45;;;;;;;20.22;100.00;94223.03;5086780;28;20116;-81
2023/06/28 03:50:35;;;;;;;40.28;19.20;;;;;;;19.91;100.00;94235.69;5061171;28;20061;-81
2023/06/28 03:53:00;;;;;;;41.42;19.40;;;;;;;20.30;100.00;94232.78;5088036;28;20028;-81
2023/06/28 03:55:26;;;;;;;39.40;20.55;;;;;;;20.08;100.00;94228.66;5094243;28;20024;-82
2023/06/28 03:57:51;;;;;;;45.00;20.75;;;;;;;19.99;100.00;94235.97;5064615;28;20345;-82
2023/06/28 04:00:17;;;;;;;40.28;18.92;;;;;;;20.19;100.00;94237.00;5073829;28;20520;-81
2023/06/28 04:02:43;;;;;;;55.70;21.13;;;;;;;20.23;100.00;94229.09;5075153;28;20028;-81
2023/06/28 04:05:10;;;;;;;29.15;19.13;;;;;;;20.28;100.00;94242.97;5074039;28;20341;-81
2023/06/28 04:07:35;;;;;;;26.38;17.73;;;;;;;20.31;100.00;94246.84;5074078;28;20024;-82
2023/06/28 04:10:01;;;;;;;36.42;19.48;;;;;;;20.33;100.00;94256.06;5073637;28;20086;-81
2023/06/28 04:12:26;;;;;;;41.47;19.15;;;;;;;20.25;100.00;94246.28;5061660;28;20013;-81
2023/06/28 04:14:52;;;;;;;34.55;19.13;;;;;;;20.31;100.00;94246.84;5057060;28;20024;-81
2023/06/28 04:17:18;;;;;;;44.15;20.73;;;;;;;19.92;100.00;94247.91;5073378;28;20024;-82
2023/06/28 04:19:43;;;;;;;36.95;20.15;;;;;;;20.06;100.00;94258.25;5073751;28;20330;-82
2023/06/28 04:22:09;;;;;;;52.72;21.40;;;;;;;20.10;100.00;94254.91;5074045;28;20064;-82
2023/06/28 04:24:34;;;;;;;32.90;19.45;;;;;;;19.90;100.00;94260.72;5073794;28;20021;-82
2023/06/28 04:27:00;;;;;;;31.95;18.35;;;;;;;20.31;100.00;94265.47;5056607;28;20695;-82
2023/06/28 04:29:29;;;;;;;26.10;17.95;;;;;;;20.42;100.00;94265.81;5075090;28;20077;-82
2023/06/28 04:32:00;;;;;;;29.95;17.40;;;;;;;20.49;100.00;94274.78;5073658;28;20021;-81
2023/06/28 04:34:25;;;;;;;27.55;17.60;;;;;;;20.59;100.00;94278.13;5073758;28;20051;-81
2023/06/28 04:36:52;;;;;;;34.53;18.85;;;;;;;19.78;100.00;94276.63;5073438;28;20028;-81
2023/06/28 04:39:18;;;;;;;37.35;20.02;;;;;;;19.92;100.00;94281.69;5073661;28;20517;-82
2023/06/28 04:41:45;;;;;;;34.03;21.83;;;;;;;19.53;100.00;94289.06;5076696;28;20035;-81
2023/06/28 04:44:10;;;;;;;34.88;20.38;;;;;;;19.56;100.00;94283.09;5078870;28;20029;-81
2023/06/28 04:46:36;;;;;;;42.45;21.60;;;;;;;19.42;100.00;94284.16;5077500;28;20039;-81
2023/06/28 04:49:01;;;;;;;43.25;22.02;;;;;;;19.35;100.00;94282.00;5077909;28;20081;-82
2023/06/28 04:51:27;;;;;;;37.22;21.02;;;;;;;19.31;100.00;94289.09;5078186;28;20036;-81
2023/06/28 04:53:53;;;;;;;35.30;20.75;;;;;;;19.32;100.00;94287.97;5076975;28;20047;-82
2023/06/28 04:56:18;;;;;;;34.35;19.45;;;;;;;19.86;100.00;94282.97;5077172;28;20028;-82
2023/06/28 04:58:44;;;;;;;36.10;21.20;;;;;;;19.78;100.00;94281.94;5081658;28;20024;-81
2023/06/28 05:01:09;;;;;;;29.58;17.45;;;;;;;20.15;100.00;94276.75;5097211;28;20055;-81
2023/06/28 05:03:43;;;;;;;41.88;21.92;;;;;;;19.41;100.00;94276.53;5080492;28;20507;-84
2023/06/28 05:06:09;;;;;;;40.22;21.25;;;;;;;19.48;100.00;94271.44;5080083;28;20024;-84
2023/06/28 05:08:35;;;;;;;38.20;19.80;;;;;;;20.23;100.00;94271.66;5095588;28;20057;-84
2023/06/28 05:11:02;;;;;;;53.92;22.20;;;;;;;19.38;100.00;94279.84;5095917;28;20032;-84
2023/06/28 05:13:28;;;;;;;46.90;21.25;;;;;;;19.90;100.00;94281.22;5079471;28;20046;-84
2023/06/28 05:15:54;;;;;;;54.53;21.00;;;;;;;19.59;100.00;94283.22;5095867;28;20107;-85
2023/06/28 05:18:20;;;;;;;81.60;21.50;;;;;;;19.18;100.00;94284.81;5078755;28;20034;-79
2023/06/28 05:20:46;;;;;;;60.25;22.75;;;;;;;18.93;100.00;94285.41;5084683;28;20024;-80
2023/06/28 05:23:16;;;;;;;56.25;21.92;;;;;;;19.24;100.00;94280.09;5098096;28;20093;-80
2023/06/28 05:25:43;;;;;;;42.33;21.63;;;;;;;19.89;100.00;94285.00;5081754;28;20127;-80
2023/06/28 05:28:10;;;;;;;37.03;18.40;;;;;;;20.26;100.00;94281.66;5081385;28;20452;-81
2023/06/28 05:30:35;;;;;;;38.03;19.13;;;;;;;20.08;100.00;94273.09;5097370;28;20030;-80
2023/06/28 05:33:02;;;;;;;54.15;21.42;;;;;;;19.75;100.00;94270.13;5088267;28;20103;-80
2023/06/28 05:35:32;;;;;;;68.22;23.45;;;;;;;19.04;100.00;94261.94;5098112;28;20024;-80
2023/06/28 05:38:02;;;;;;;55.80;21.17;;;;;;;19.71;100.00;94266.53;5097844;28;20441;-80
2023/06/28 05:40:27;;;;;;;165.68;26.05;;;;;;;19.55;100.00;94260.28;5098421;28;20048;-80
2023/06/28 05:42:53;;;;;;;51.90;22.95;;;;;;;19.16;100.00;94266.56;5097856;28;20550;-79
2023/06/28 05:45:23;;;;;;;49.35;20.10;;;;;;;19.90;100.00;94262.63;5097698;28;20048;-80
2023/06/28 05:47:49;;;;;;;35.35;18.92;;;;;;;20.53;100.00;94255.50;5097940;28;20064;-80
2023/06/28 05:50:16;;;;;;;38.35;16.17;;;;;;;20.93;100.00;94246.06;5097953;28;20028;-80
2023/06/28 05:52:44;;;;;;;44.47;18.00;;;;;;;20.60;100.00;94242.41;5063020;28;20021;-80
2023/06/28 05:55:10;;;;;;;37.22;17.55;;;;;;;19.97;100.00;94248.81;5077785;28;20035;-79
2023/06/28 05:57:36;;;;;;;40.10;17.83;;;;;;;19.81;100.00;94262.72;5079071;28;20099;-79
2023/06/28 06:00:03;;;;;;;36.65;17.63;;;;;;;20.40;100.00;94257.38;5061507;28;20028;-79
2023/06/28 06:02:29;;;;;;;36.88;18.08;;;;;;;21.14;100.00;94251.22;5077739;28;20048;-79
2023/06/28 06:04:54;;;;;;;32.30;16.40;;;;;;;21.50;100.00;94243.44;5079034;28;20024;-80
2023/06/28 06:07:21;;;;;;;33.95;17.90;;;;;;;21.83;100.00;94247.75;5060629;28;20119;-80
2023/06/28 06:09:46;;;;;;;33.55;17.95;;;;;;;21.81;100.00;94241.97;5077783;28;20028;-81
2023/06/28 06:12:12;;;;;;;38.90;20.30;;;;;;;20.80;100.00;94247.91;5077422;28;20384;-81
2023/06/28 06:14:37;;;;;;;30.73;17.52;;;;;;;21.49;100.00;94247.22;5077444;28;20028;-81
2023/06/28 06:17:03;;;;;;;34.15;18.00;;;;;;;22.00;100.00;94246.66;5078435;28;20024;-82
2023/06/28 06:19:28;;;;;;;26.77;16.58;;;;;;;22.26;100.00;94238.13;5078458;28;20111;-82
2023/06/28 06:21:53;;;;;;;34.83;17.55;;;;;;;22.51;100.00;94240.63;5077244;28;20437;-82
2023/06/28 06:24:19;;;;;;;31.77;16.00;;;;;;;22.87;100.00;94240.66;5067016;28;20062;-82
2023/06/28 06:26:44;;;;;;;28.33;16.77;;;;;;;23.02;100.00;94249.72;5076628;28;20024;-82
2023/06/28 06:29:09;;;;;;;31.38;17.40;;;;;;;21.95;100.00;94244.22;5077203;28;20028;-82
2023/06/28 06:31:35;;;;;;;36.88;18.80;;;;;;;21.94;100.00;94250.66;5077078;28;20457;-82
2023/06/28 06:34:01;;;;;;;29.73;16.70;;;;;;;22.03;100.00;94257.41;5078252;28;20017;-82
2023/06/28 06:36:29;;;;;;;25.67;14.13;;;;;;;21.95;100.00;94252.22;5060484;28;20028;-82
2023/06/28 06:38:56;;;;;;;26.73;15.23;;;;;;;22.08;100.00;94267.03;5060245;28;20068;-82
2023/06/28 06:41:22;;;;;;;25.90;14.77;;;;;;;22.48;100.00;94267.25;5076949;28;20107;-82
2023/06/28 06:43:47;;;;;;;30.50;15.45;;;;;;;22.61;100.00;94259.94;5060407;28;20426;-82
2023/06/28 06:46:13;;;;;;;28.90;15.27;;;;;;;23.15;100.00;94258.41;5076885;28;20036;-82
2023/06/28 06:48:38;;;;;;;30.67;14.55;;;;;;;23.05;100.00;94248.25;5076646;28;20090;-82
2023/06/28 06:51:07;;;;;;;23.05;12.25;;;;;;;23.56;100.00;94245.50;5076608;28;20086;-82
2023/06/28 06:53:32;;;;;;;26.20;13.57;;;;;;;23.53;100.00;94248.09;5077855;28;20017;-82
2023/06/28 06:56:04;;;;;;;27.00;12.95;;;;;;;23.44;100.00;94251.00;5076917;28;20074;-82
2023/06/28 06:58:30;;;;;;;32.65;15.77;;;;;;;23.49;100.00;94256.03;5060152;28;20035;-82
2023/06/28 07:00:55;;;;;;;24.95;13.50;;;;;;;23.85;100.00;94264.75;5076445;28;20028;-82
2023/06/28 07:03:20;;;;;;;26.95;14.00;;;;;;;24.69;100.00;94268.78;5059824;28;20029;-83
2023/06/28 07:05:46;;;;;;;26.85;14.10;;;;;;;25.30;100.00;94268.09;5076411;28;20110;-83
2023/06/28 07:08:11;;;;;;;24.33;14.13;;;;;;;25.82;100.00;94274.47;5059414;28;20024;-83
2023/06/28 07:10:37;;;;;;;28.33;14.02;;;;;;;25.24;100.00;94267.63;5059810;28;20036;-82
2023/06/28 07:13:03;;;;;;;26.70;13.65;;;;;;;24.74;100.00;94275.75;5076276;28;20128;-84
2023/06/28 07:15:28;;;;;;;35.40;17.50;;;;;;;23.52;100.00;94276.72;5076243;28;20505;-84
2023/06/28 07:17:54;;;;;;;31.85;17.42;;;;;;;23.43;100.00;94287.63;5076961;28;20115;-84
2023/06/28 07:20:20;;;;;;;37.22;17.92;;;;;;;23.26;100.00;94282.66;5076157;28;20166;-84
2023/06/28 07:22:45;;;;;;;38.35;19.77;;;;;;;23.90;100.00;94285.09;5059512;28;20488;-84
2023/06/28 07:25:11;;;;;;;33.92;18.00;;;;;;;24.00;100.00;94289.84;5076535;28;20028;-84
2023/06/28 07:27:36;;;;;;;36.08;19.50;;;;;;;23.47;100.00;94301.06;5074062;28;20060;-84
2023/06/28 07:30:02;;;;;;;44.38;22.42;;;;;;;22.97;100.00;94309.56;5075561;28;20048;-83
2023/06/28 07:32:27;;;;;;;38.35;21.05;;;;;;;23.20;100.00;94303.53;5075909;28;20021;-84
2023/06/28 07:34:54;;;;;;;34.90;20.13;;;;;;;22.96;100.00;94308.03;5075893;28;20094;-84
2023/06/28 07:37:21;;;;;;;35.63;20.92;;;;;;;22.71;100.00;94310.91;5075456;28;20029;-84
2023/06/28 07:39:46;;;;;;;38.92;19.60;;;;;;;22.89;100.00;94302.50;5075867;28;20028;-85
2023/06/28 07:42:12;;;;;;;34.90;21.02;;;;;;;22.68;100.00;94305.47;5075667;28;20123;-85
2023/06/28 07:44:38;;;;;;;38.70;21.50;;;;;;;22.85;100.00;94315.78;5075787;28;20442;-84
2023/06/28 07:47:04;;;;;;;37.90;21.30;;;;;;;22.61;100.00;94316.75;5075597;28;20066;-84
2023/06/28 07:49:29;;;;;;;42.47;21.88;;;;;;;22.39;100.00;94321.56;5075697;28;20035;-84
2023/06/28 07:51:55;;;;;;;32.63;19.75;;;;;;;22.87;100.00;94326.88;5075734;28;20032;-84
2023/06/28 07:54:20;;;;;;;31.77;17.48;;;;;;;23.66;100.00;94320.91;5075672;28;20035;-84
2023/06/28 07:56:46;;;;;;;28.95;17.50;;;;;;;24.12;100.00;94315.69;5075679;28;20035;-84
2023/06/28 07:59:11;;;;;;;39.28;21.27;;;;;;;22.99;100.00;94327.91;5059387;28;20032;-84
2023/06/28 08:01:36;;;;;;;36.35;21.60;;;;;;;22.82;100.00;94335.16;5075495;28;20028;-84
2023/06/28 08:04:02;;;;;;;43.10;24.30;;;;;;;22.70;100.00;94332.59;5059001;28;20041;-83
2023/06/28 08:06:28;;;;;;;57.22;31.13;;;;;;;22.70;100.00;94332.59;5058708;28;20036;-83
2023/06/28 08:08:54;;;;;;;57.63;32.53;;;;;;;22.08;100.00;94332.97;5075062;28;20101;-84
2023/06/28 08:11:20;;;;;;;46.08;29.02;;;;;;;22.99;100.00;94331.38;5075322;28;20040;-84
2023/06/28 08:13:45;;;;;;;49.35;29.45;;;;;;;22.71;100.00;94332.25;5076908;28;20025;-84
2023/06/28 08:16:11;;;;;;;58.47;28.38;;;;;;;22.96;100.00;94340.09;5075079;28;20040;-84
2023/06/28 08:18:36;;;;;;;49.58;28.92;;;;;;;22.41;100.00;94348.69;5075349;28;20086;-84
2023/06/28 08:21:02;;;;;;;50.22;28.13;;;;;;;22.15;100.00;94344.59;5058912;28;20385;-84
2023/06/28 08:23:27;;;;;;;59.78;29.10;;;;;;;22.53;100.00;94344.41;5075199;28;20090;-84
2023/06/28 08:25:53;;;;;;;54.05;25.40;;;;;;;22.88;100.00;94346.38;5075357;28;20119;-84
2023/06/28 08:28:18;;;;;;;45.40;23.08;;;;;;;23.04;100.00;94359.72;5058428;28;20538;-84
2023/06/28 08:30:44;;;;;;;53.53;27.52;;;;;;;22.43;100.00;94359.78;5058762;28;20028;-84
2023/06/28 08:33:09;;;;;;;53.00;27.65;;;;;;;22.07;100.00;94366.84;5058662;28;20376;-85
2023/06/28 08:35:34;;;;;;;53.83;27.33;;;;;;;22.04;100.00;94364.88;5059006;28;20031;-84
2023/06/28 08:38:00;;;;;;;53.40;28.33;;;;;;;21.93;100.00;94363.81;5075606;28;20047;-85
2023/06/28 08:40:29;;;;;;;49.45;25.60;;;;;;;22.08;100.00;94367.66;5075258;28;20024;-86
2023/06/28 08:42:58;;;;;;;65.72;32.67;;;;;;;21.60;100.00;94366.34;5075185;28;20025;-84
2023/06/28 08:45:24;;;;;;;44.92;24.90;;;;;;;22.39;100.00;94374.94;5058655;28;20472;-85
2023/06/28 08:47:49;;;;;;;57.00;27.92;;;;;;;22.31;100.00;94375.88;5074960;28;20062;-84
2023/06/28 08:50:15;;;;;;;61.47;31.88;;;;;;;21.29;100.00;94374.94;5074996;28;20036;-85
2023/06/28 08:52:40;;;;;;;51.63;26.70;;;;;;;21.87;100.00;94384.59;5075087;28;20024;-84
2023/06/28 08:55:06;;;;;;;48.75;26.33;;;;;;;22.32;100.00;94374.75;5075064;28;20052;-84
2023/06/28 08:57:32;;;;;;;47.47;25.70;;;;;;;22.57;100.00;94386.06;5074898;28;20034;-84
2023/06/28 08:59:58;;;;;;;57.83;28.05;;;;;;;21.84;100.00;94385.28;5074747;28;20055;-84
2023/06/28 09:02:25;;;;;;;44.65;27.02;;;;;;;21.57;100.00;94388.34;5074914;28;20064;-85
2023/06/28 09:04:51;;;;;;;55.05;30.30;;;;;;;21.10;100.00;94388.88;5074884;28;20028;-84
2023/06/28 09:07:17;;;;;;;48.15;26.98;;;;;;;20.93;100.00;94395.94;5058282;28;20330;-85
2023/06/28 09:09:47;;;;;;;48.97;28.00;;;;;;;21.54;100.00;94389.03;5076041;28;20095;-84
2023/06/28 09:12:13;;;;;;;50.75;30.42;;;;;;;21.16;100.00;94398.16;5074895;28;20027;-85
2023/06/28 09:14:39;;;;;;;51.67;29.33;;;;;;;21.16;100.00;94401.63;5058636;28;20408;-85
2023/06/28 09:17:04;;;;;;;47.15;27.55;;;;;;;20.89;100.00;94397.72;5074435;28;20093;-86
2023/06/28 09:19:30;;;;;;;84.22;29.77;;;;;;;20.83;100.00;94402.50;5058611;28;20029;-84
2023/06/28 09:22:03;;;;;;;44.15;26.75;;;;;;;20.94;100.00;94402.81;5058232;28;20089;-84
2023/06/28 09:24:33;;;;;;;43.53;26.38;;;;;;;21.24;100.00;94407.94;5074808;28;20031;-85
2023/06/28 09:27:01;;;;;;;45.83;26.33;;;;;;;20.94;100.00;94404.72;5074763;28;20421;-85
2023/06/28 09:29:27;;;;;;;43.90;27.55;;;;;;;20.26;100.00;94406.69;5077260;28;20078;-84
2023/06/28 09:31:53;;;;;;;46.60;26.77;;;;;;;20.85;100.00;94412.81;5088361;28;20028;-84
2023/06/28 09:34:22;;;;;;;53.20;30.65;;;;;;;20.51;100.00;94409.38;5095872;28;20068;-84
2023/06/28 09:36:55;;;;;;;43.10;25.70;;;;;;;21.30;100.00;94413.81;5079412;28;20407;-82
2023/06/28 09:39:21;;;;;;;44.92;27.95;;;;;;;20.77;100.00;94417.88;5084585;28;20035;-82
2023/06/28 09:41:48;;;;;;;32.35;21.70;;;;;;;21.21;100.00;94416.59;5083092;28;20028;-82
2023/06/28 09:44:13;;;;;;;40.95;26.58;;;;;;;21.64;100.00;94410.97;5077966;28;20345;-82
2023/06/28 09:46:46;;;;;;;39.42;23.98;;;;;;;21.14;100.00;94419.81;5077833;28;20032;-82
2023/06/28 09:49:32;;;;;;;43.53;27.07;;;;;;;20.95;100.00;94417.72;5077935;28;20174;-82
2023/06/28 09:52:06;;;;;;;35.78;24.95;;;;;;;21.17;100.00;94419.16;5077483;28;20040;-82
2023/06/28 09:54:34;;;;;;;42.05;25.85;;;;;;;20.99;100.00;94418.59;5077710;28;20031;-82
2023/06/28 09:57:01;;;;;;;43.40;27.35;;;;;;;21.77;100.00;94409.09;5060850;28;20039;-82
2023/06/28 09:59:28;;;;;;;37.05;24.23;;;;;;;21.50;100.00;94409.44;5077795;28;20063;-82
2023/06/28 10:01:57;;;;;;;38.80;23.40;;;;;;;21.17;100.00;94418.38;5077633;28;20115;-82
2023/06/28 10:04:26;;;;;;;38.08;24.48;;;;;;;21.23;100.00;94417.06;5061037;28;20123;-82
2023/06/28 10:06:51;;;;;;;40.70;25.35;;;;;;;21.44;100.00;94414.22;5077461;28;20126;-82
2023/06/28 10:09:21;;;;;;;35.13;21.50;;;;;;;22.30;100.00;94419.69;5077608;28;20028;-81
2023/06/28 10:11:47;;;;;;;29.80;20.17;;;;;;;23.83;100.00;94416.00;5078969;28;20066;-82
2023/06/28 10:14:19;;;;;;;32.58;21.38;;;;;;;23.51;100.00;94419.56;5090764;28;20032;-82
2023/06/28 10:16:45;;;;;;;32.47;21.00;;;;;;;23.89;100.00;94413.84;5097488;28;20089;-82
2023/06/28 10:19:11;;;;;;;27.60;18.77;;;;;;;24.01;100.00;94416.38;5077167;28;20441;-82
2023/06/28 10:21:38;;;;;;;30.05;17.58;;;;;;;24.34;100.00;94412.44;5077196;28;20056;-82
2023/06/28 10:24:05;;;;;;;24.92;16.48;;;;;;;24.53;100.00;94416.97;5088092;28;20027;-82
2023/06/28 10:26:31;;;;;;;27.40;16.80;;;;;;;24.40;100.00;94416.38;5094048;28;20052;-82
2023/06/28 10:28:57;;;;;;;22.23;13.98;;;;;;;25.22;100.00;94420.03;5076636;28;20113;-82
2023/06/28 10:31:26;;;;;;;23.67;15.57;;;;;;;24.90;100.00;94418.38;5077361;28;20449;-82
2023/06/28 10:33:54;;;;;;;23.98;15.73;;;;;;;24.43;100.00;94426.38;5060526;28;20491;-82
2023/06/28 10:36:20;;;;;;;32.38;17.60;;;;;;;23.88;100.00;94417.63;5093905;28;20441;-82
2023/06/28 10:38:46;;;;;;;28.42;16.17;;;;;;;24.66;100.00;94422.94;5093317;28;20025;-82
2023/06/28 10:41:15;;;;;;;27.10;16.65;;;;;;;23.93;100.00;94425.38;5093823;28;20024;-82
2023/06/28 10:43:41;;;;;;;25.33;15.88;;;;;;;24.69;100.00;94418.78;5077030;28;20016;-82
2023/06/28 10:46:26;;;;;;;27.77;17.23;;;;;;;24.63;100.00;94428.25;5077084;28;20050;-82
2023/06/28 10:48:52;;;;;;;21.30;14.00;;;;;;;25.73;100.00;94426.91;5077140;28;20028;-82
2023/06/28 10:51:21;;;;;;;21.10;14.13;;;;;;;25.57;100.00;94426.31;5077826;28;20052;-82
2023/06/28 10:53:56;;;;;;;29.45;16.80;;;;;;;25.95;100.00;94413.75;5076748;28;20361;-82
2023/06/28 10:56:21;;;;;;;27.33;16.90;;;;;;;25.22;100.00;94420.78;5076453;28;20038;-82
2023/06/28 10:58:47;;;;;;;29.65;16.98;;;;;;;25.16;100.00;94418.78;5076316;28;20102;-82
2023/06/28 11:01:37;;;;;;;29.77;16.83;;;;;;;25.43;100.00;94422.25;5060048;28;20035;-82
2023/06/28 11:04:12;;;;;;;27.88;15.50;;;;;;;25.04;100.00;94422.44;5093322;28;20030;-82
2023/06/28 11:06:39;;;;;;;30.33;17.38;;;;;;;25.14;100.00;94419.16;5077261;28;20411;-82